createdAt,value
2022-11-24T00:01:27.361Z,1.46
2022-11-24T00:04:27.397Z,1.82
2022-11-24T00:05:27.377Z,1.29
2022-11-24T00:06:27.381Z,1.31
2022-11-24T00:07:27.457Z,1.29
2022-11-24T00:08:27.378Z,2.46
2022-11-24T00:09:27.393Z,1.70
2022-11-24T00:11:27.400Z,1.39
2022-11-24T00:12:27.431Z,1.45
2022-11-24T00:13:27.414Z,1.47
2022-11-24T00:14:27.404Z,1.55
2022-11-24T00:15:27.426Z,1.26
2022-11-24T00:16:27.467Z,1.79
2022-11-24T00:17:27.471Z,1.54
2022-11-24T00:18:27.435Z,1.24
2022-11-24T00:19:27.434Z,1.29
2022-11-24T00:21:27.431Z,1.37
2022-11-24T00:23:27.444Z,1.39
2022-11-24T00:24:27.420Z,1.45
2022-11-24T00:25:27.470Z,1.58
2022-11-24T00:27:27.460Z,1.25
2022-11-24T00:29:27.467Z,1.59
2022-11-24T00:30:27.521Z,1.22
2022-11-24T00:31:27.545Z,1.49
2022-11-24T00:32:27.438Z,1.65
2022-11-24T00:33:27.467Z,1.56
2022-11-24T00:34:27.472Z,1.13
2022-11-24T00:36:27.446Z,1.29
2022-11-24T00:37:27.473Z,1.64
2022-11-24T00:38:27.490Z,1.55
2022-11-24T00:39:27.450Z,1.53
2022-11-24T00:40:32.108Z,1.31
2022-11-24T00:41:27.478Z,1.17
2022-11-24T00:42:27.475Z,1.26
2022-11-24T00:43:27.511Z,1.31
2022-11-24T00:44:27.485Z,1.50
2022-11-24T00:45:27.468Z,1.21
2022-11-24T00:46:27.552Z,1.60
2022-11-24T00:47:27.497Z,1.27
2022-11-24T00:48:27.532Z,1.58
2022-11-24T00:51:27.494Z,1.32
2022-11-24T00:52:27.507Z,1.45
2022-11-24T00:53:27.523Z,1.66
2022-11-24T00:54:27.505Z,1.49
2022-11-24T00:55:27.510Z,1.50
2022-11-24T00:56:27.545Z,1.74
2022-11-24T00:57:27.486Z,1.51
2022-11-24T00:58:27.534Z,1.86
2022-11-24T00:59:27.503Z,1.79
2022-11-24T01:00:27.524Z,1.58
2022-11-24T01:02:27.551Z,1.50
2022-11-24T01:03:27.554Z,1.52
2022-11-24T01:05:27.537Z,1.87
2022-11-24T01:06:27.551Z,1.79
2022-11-24T01:07:27.596Z,1.36
2022-11-24T01:08:27.573Z,1.53
2022-11-24T01:09:28.832Z,1.92
2022-11-24T01:10:27.536Z,1.59
2022-11-24T01:11:27.569Z,1.63
2022-11-24T01:12:27.544Z,1.73
2022-11-24T01:13:27.601Z,1.90
2022-11-24T01:14:27.559Z,1.84
2022-11-24T01:16:27.644Z,1.58
2022-11-24T01:17:27.567Z,1.65
2022-11-24T01:18:27.611Z,1.74
2022-11-24T01:19:27.550Z,2.03
2022-11-24T01:20:27.549Z,1.96
2022-11-24T01:21:27.597Z,1.78
2022-11-24T01:22:27.559Z,1.84
2022-11-24T01:23:27.603Z,1.62
2022-11-24T01:25:27.583Z,2.03
2022-11-24T01:26:27.619Z,2.01
2022-11-24T01:27:27.563Z,2.16
2022-11-24T01:28:27.627Z,1.96
2022-11-24T01:29:27.589Z,1.91
2022-11-24T01:31:27.714Z,1.72
2022-11-24T01:33:27.660Z,1.91
2022-11-24T01:34:27.609Z,2.07
2022-11-24T01:35:27.606Z,1.67
2022-11-24T01:36:27.644Z,1.83
2022-11-24T01:37:27.615Z,2.03
2022-11-24T01:38:27.610Z,1.89
2022-11-24T01:39:27.609Z,1.87
2022-11-24T01:40:27.613Z,2.10
2022-11-24T01:41:27.627Z,1.57
2022-11-24T01:42:27.633Z,1.83
2022-11-24T01:43:27.624Z,1.97
2022-11-24T01:44:27.621Z,1.83
2022-11-24T01:45:27.611Z,2.07
2022-11-24T01:46:27.712Z,1.77
2022-11-24T01:48:28.001Z,1.79
2022-11-24T01:49:27.649Z,1.76
2022-11-24T01:50:27.623Z,2.03
2022-11-24T01:51:27.670Z,1.64
2022-11-24T01:52:27.654Z,1.91
2022-11-24T01:54:27.703Z,2.16
2022-11-24T01:55:27.667Z,2.45
2022-11-24T01:56:27.686Z,1.94
2022-11-24T01:57:27.657Z,1.90
2022-11-24T01:59:27.696Z,2.44
2022-11-24T02:00:27.680Z,2.20
2022-11-24T02:01:27.812Z,2.60
2022-11-24T02:02:27.693Z,2.58
2022-11-24T02:03:27.655Z,2.42
2022-11-24T02:04:27.703Z,2.82
2022-11-24T02:05:27.662Z,2.26
2022-11-24T02:06:27.737Z,2.20
2022-11-24T02:07:27.735Z,2.88
2022-11-24T02:08:27.679Z,2.28
2022-11-24T02:09:27.718Z,2.62
2022-11-24T02:10:27.679Z,2.61
2022-11-24T02:11:27.752Z,2.58
2022-11-24T02:13:27.668Z,2.48
2022-11-24T02:14:27.728Z,2.29
2022-11-24T02:15:27.679Z,2.27
2022-11-24T02:16:27.694Z,2.61
2022-11-24T02:17:27.710Z,2.55
2022-11-24T02:18:27.717Z,2.14
2022-11-24T02:19:27.763Z,2.57
2022-11-24T02:20:27.697Z,2.06
2022-11-24T02:21:27.736Z,2.31
2022-11-24T02:23:27.732Z,2.07
2022-11-24T02:24:27.752Z,2.24
2022-11-24T02:25:27.712Z,2.41
2022-11-24T02:26:27.733Z,1.96
2022-11-24T02:27:27.746Z,1.82
2022-11-24T02:28:27.738Z,2.65
2022-11-24T02:30:27.739Z,2.08
2022-11-24T02:31:27.806Z,2.24
2022-11-24T02:32:27.717Z,2.49
2022-11-24T02:33:27.744Z,1.97
2022-11-24T02:34:27.761Z,2.22
2022-11-24T02:35:27.744Z,1.54
2022-11-24T02:36:27.747Z,1.89
2022-11-24T02:37:27.771Z,2.22
2022-11-24T02:38:27.745Z,2.01
2022-11-24T02:39:27.742Z,1.94
2022-11-24T02:40:27.818Z,2.16
2022-11-24T02:41:27.763Z,2.25
2022-11-24T02:42:27.768Z,2.14
2022-11-24T02:43:27.748Z,1.98
2022-11-24T02:44:27.802Z,2.08
2022-11-24T02:45:27.806Z,1.97
2022-11-24T02:46:27.860Z,2.04
2022-11-24T02:47:27.788Z,1.69
2022-11-24T02:48:27.801Z,1.96
2022-11-24T02:49:27.756Z,2.14
2022-11-24T02:51:27.841Z,1.66
2022-11-24T02:52:27.784Z,1.77
2022-11-24T02:54:27.823Z,2.08
2022-11-24T02:56:27.792Z,1.68
2022-11-24T02:57:27.843Z,1.66
2022-11-24T02:58:27.836Z,1.58
2022-11-24T02:59:27.829Z,1.91
2022-11-24T03:00:27.821Z,1.86
2022-11-24T03:01:27.870Z,1.98
2022-11-24T03:02:27.902Z,1.80
2022-11-24T03:03:27.860Z,1.85
2022-11-24T03:04:27.821Z,1.50
2022-11-24T03:05:27.815Z,1.81
2022-11-24T03:06:27.849Z,2.24
2022-11-24T03:07:27.921Z,1.34
2022-11-24T03:08:27.853Z,2.13
2022-11-24T03:09:28.206Z,1.49
2022-11-24T03:10:27.843Z,1.94
2022-11-24T03:11:27.878Z,1.57
2022-11-24T03:12:27.835Z,1.94
2022-11-24T03:13:27.904Z,1.65
2022-11-24T03:14:27.864Z,1.80
2022-11-24T03:15:27.884Z,1.96
2022-11-24T03:16:27.950Z,1.35
2022-11-24T03:17:27.861Z,1.70
2022-11-24T03:18:27.868Z,1.45
2022-11-24T03:19:27.872Z,1.23
2022-11-24T03:20:27.858Z,1.64
2022-11-24T03:21:27.901Z,1.72
2022-11-24T03:22:27.854Z,1.68
2022-11-24T03:24:27.844Z,1.37
2022-11-24T03:25:27.874Z,1.41
2022-11-24T03:26:27.911Z,1.50
2022-11-24T03:27:27.859Z,1.58
2022-11-24T03:29:27.870Z,2.17
2022-11-24T03:33:27.937Z,1.55
2022-11-24T03:34:27.897Z,1.72
2022-11-24T03:35:27.923Z,1.62
2022-11-24T03:36:27.911Z,1.69
2022-11-24T03:37:27.906Z,2.18
2022-11-24T03:39:27.905Z,1.69
2022-11-24T03:40:27.890Z,1.42
2022-11-24T03:41:27.914Z,1.76
2022-11-24T03:42:27.920Z,1.77
2022-11-24T03:43:27.950Z,1.59
2022-11-24T03:45:45.405Z,1.51
2022-11-24T03:46:27.983Z,1.48
2022-11-24T03:47:27.907Z,1.78
2022-11-24T03:48:27.964Z,1.91
2022-11-24T03:49:27.926Z,1.60
2022-11-24T03:50:27.945Z,1.91
2022-11-24T03:52:27.924Z,1.57
2022-11-24T03:53:27.973Z,1.34
2022-11-24T03:54:27.952Z,1.42
2022-11-24T03:57:27.981Z,1.86
2022-11-24T03:58:27.977Z,1.25
2022-11-24T04:01:28.009Z,1.68
2022-11-24T04:02:28.033Z,1.37
2022-11-24T04:03:28.015Z,1.40
2022-11-24T04:04:27.966Z,1.49
2022-11-24T04:05:27.971Z,1.55
2022-11-24T04:06:27.994Z,1.37
2022-11-24T04:07:28.052Z,1.44
2022-11-24T04:08:27.988Z,1.42
2022-11-24T04:11:28.040Z,1.35
2022-11-24T04:12:27.975Z,1.60
2022-11-24T04:14:28.026Z,1.89
2022-11-24T04:16:28.103Z,1.19
2022-11-24T04:17:28.008Z,1.83
2022-11-24T04:19:27.979Z,1.47
2022-11-24T04:20:27.984Z,1.47
2022-11-24T04:22:28.014Z,1.09
2022-11-24T04:23:28.046Z,1.61
2022-11-24T04:24:28.012Z,1.22
2022-11-24T04:28:28.013Z,1.84
2022-11-24T04:29:28.023Z,1.55
2022-11-24T04:30:28.033Z,1.49
2022-11-24T04:31:28.114Z,1.04
2022-11-24T04:32:28.029Z,1.44
2022-11-24T04:33:28.049Z,1.73
2022-11-24T04:34:28.019Z,1.07
2022-11-24T04:35:28.042Z,1.32
2022-11-24T04:36:28.076Z,1.51
2022-11-24T04:37:28.038Z,1.61
2022-11-24T04:39:25.005Z,1.45
2022-11-24T04:39:28.848Z,1.44
2022-11-24T04:40:28.046Z,0.95
2022-11-24T04:41:28.086Z,1.20
2022-11-24T04:42:28.072Z,1.39
2022-11-24T04:43:28.069Z,1.40
2022-11-24T04:44:28.081Z,1.05
2022-11-24T04:45:28.094Z,1.14
2022-11-24T04:46:28.161Z,1.45
2022-11-24T04:47:28.080Z,1.52
2022-11-24T04:48:28.069Z,1.15
2022-11-24T04:49:28.100Z,1.42
2022-11-24T04:50:28.086Z,1.30
2022-11-24T04:52:28.083Z,1.52
2022-11-24T04:53:28.058Z,1.93
2022-11-24T04:54:28.104Z,1.50
2022-11-24T04:55:28.075Z,1.19
2022-11-24T04:56:28.113Z,1.55
2022-11-24T04:57:28.069Z,1.57
2022-11-24T04:58:28.093Z,1.22
2022-11-24T04:59:28.114Z,1.53
2022-11-24T05:01:28.234Z,1.24
2022-11-24T05:04:28.226Z,1.10
2022-11-24T05:05:28.108Z,1.41
2022-11-24T05:07:28.158Z,1.11
2022-11-24T05:08:28.134Z,1.10
2022-11-24T05:09:42.001Z,0.97
2022-11-24T05:10:28.109Z,1.26
2022-11-24T05:11:28.130Z,1.32
2022-11-24T05:12:28.161Z,1.74
2022-11-24T05:13:28.123Z,1.29
2022-11-24T05:14:28.189Z,1.68
2022-11-24T05:15:28.175Z,1.25
2022-11-24T05:16:28.251Z,1.59
2022-11-24T05:17:28.182Z,1.40
2022-11-24T05:18:28.193Z,1.26
2022-11-24T05:19:31.218Z,1.26
2022-11-24T05:20:28.177Z,1.47
2022-11-24T05:21:28.168Z,1.08
2022-11-24T05:22:28.186Z,1.95
2022-11-24T05:24:28.190Z,1.30
2022-11-24T05:26:28.211Z,1.86
2022-11-24T05:27:28.217Z,1.21
2022-11-24T05:28:28.150Z,1.64
2022-11-24T05:30:28.174Z,1.24
2022-11-24T05:32:28.217Z,1.32
2022-11-24T05:33:28.193Z,1.07
2022-11-24T05:35:28.220Z,2.29
2022-11-24T05:36:28.168Z,1.83
2022-11-24T05:39:28.227Z,1.89
2022-11-24T05:41:28.223Z,1.78
2022-11-24T05:42:28.254Z,1.52
2022-11-24T05:43:28.235Z,1.46
2022-11-24T05:44:28.243Z,1.56
2022-11-24T05:45:28.232Z,1.51
2022-11-24T05:46:28.321Z,2.03
2022-11-24T05:48:28.205Z,1.42
2022-11-24T05:49:28.214Z,1.51
2022-11-24T05:50:28.257Z,1.82
2022-11-24T05:51:28.225Z,1.58
2022-11-24T05:52:28.303Z,1.29
2022-11-24T05:53:28.254Z,1.51
2022-11-24T05:54:28.270Z,1.42
2022-11-24T05:55:28.273Z,1.44
2022-11-24T05:57:28.258Z,1.48
2022-11-24T05:58:28.266Z,1.78
2022-11-24T05:59:28.269Z,2.02
2022-11-24T06:00:28.307Z,1.37
2022-11-24T06:01:28.371Z,1.68
2022-11-24T06:02:28.420Z,1.39
2022-11-24T06:03:28.297Z,1.53
2022-11-24T06:04:28.253Z,1.64
2022-11-24T06:05:28.319Z,1.30
2022-11-24T06:06:28.294Z,1.23
2022-11-24T06:07:28.394Z,1.56
2022-11-24T06:08:31.247Z,1.23
2022-11-24T06:09:28.258Z,1.80
2022-11-24T06:10:28.299Z,1.72
2022-11-24T06:11:28.277Z,0.95
2022-11-24T06:12:28.273Z,1.70
2022-11-24T06:14:28.275Z,1.39
2022-11-24T06:15:28.343Z,1.63
2022-11-24T06:16:28.387Z,1.46
2022-11-24T06:17:28.317Z,1.46
2022-11-24T06:18:28.315Z,1.78
2022-11-24T06:19:28.308Z,1.59
2022-11-24T06:20:32.332Z,1.61
2022-11-24T06:21:28.285Z,1.88
2022-11-24T06:22:28.322Z,1.80
2022-11-24T06:23:28.322Z,1.98
2022-11-24T06:24:28.321Z,1.70
2022-11-24T06:25:28.341Z,2.36
2022-11-24T06:26:28.307Z,1.73
2022-11-24T06:27:28.339Z,1.78
2022-11-24T06:28:28.304Z,1.53
2022-11-24T06:29:28.343Z,2.40
2022-11-24T06:31:28.380Z,1.97
2022-11-24T06:32:28.320Z,1.55
2022-11-24T06:33:28.353Z,1.57
2022-11-24T06:34:28.317Z,2.11
2022-11-24T06:35:28.352Z,1.93
2022-11-24T06:38:28.351Z,1.61
2022-11-24T06:40:28.365Z,2.07
2022-11-24T06:41:28.331Z,2.00
2022-11-24T06:42:28.413Z,1.79
2022-11-24T06:44:28.396Z,2.18
2022-11-24T06:45:28.414Z,2.42
2022-11-24T06:46:28.357Z,1.64
2022-11-24T06:47:28.390Z,1.63
2022-11-24T06:49:28.387Z,1.76
2022-11-24T06:50:33.460Z,1.98
2022-11-24T06:51:28.404Z,1.70
2022-11-24T06:53:28.410Z,2.52
2022-11-24T06:54:28.402Z,2.23
2022-11-24T06:55:28.535Z,2.33
2022-11-24T06:56:28.386Z,1.76
2022-11-24T06:57:28.403Z,1.95
2022-11-24T06:58:28.520Z,1.99
2022-11-24T06:59:28.397Z,3.05
2022-11-24T07:01:28.525Z,2.22
2022-11-24T07:02:28.391Z,2.27
2022-11-24T07:03:28.440Z,2.65
2022-11-24T07:04:28.447Z,2.81
2022-11-24T07:05:28.466Z,2.60
2022-11-24T07:06:28.460Z,2.47
2022-11-24T07:09:28.452Z,2.18
2022-11-24T07:10:28.481Z,4.01
2022-11-24T07:11:28.428Z,2.76
2022-11-24T07:12:28.446Z,2.55
2022-11-24T07:13:28.462Z,2.73
2022-11-24T07:14:28.419Z,2.90
2022-11-24T07:15:28.486Z,2.17
2022-11-24T07:16:28.494Z,3.98
2022-11-24T07:17:28.412Z,2.95
2022-11-24T07:18:28.466Z,2.86
2022-11-24T07:19:28.465Z,1.99
2022-11-24T07:20:28.433Z,2.13
2022-11-24T07:21:28.513Z,2.61
2022-11-24T07:24:28.459Z,1.65
2022-11-24T07:26:28.482Z,2.04
2022-11-24T07:27:28.511Z,1.88
2022-11-24T07:28:28.520Z,2.01
2022-11-24T07:29:28.451Z,1.95
2022-11-24T07:30:28.673Z,1.92
2022-11-24T07:31:28.542Z,2.61
2022-11-24T07:32:28.476Z,1.76
2022-11-24T07:33:28.543Z,2.42
2022-11-24T07:34:28.453Z,2.09
2022-11-24T07:35:28.471Z,1.67
2022-11-24T07:36:28.539Z,2.23
2022-11-24T07:37:31.531Z,2.83
2022-11-24T07:38:28.479Z,2.92
2022-11-24T07:39:28.479Z,3.52
2022-11-24T07:40:28.495Z,3.82
2022-11-24T07:41:28.554Z,4.02
2022-11-24T07:42:28.661Z,2.50
2022-11-24T07:43:28.501Z,2.74
2022-11-24T07:44:28.479Z,2.38
2022-11-24T07:45:28.563Z,1.86
2022-11-24T07:46:28.660Z,3.77
2022-11-24T07:47:28.541Z,2.75
2022-11-24T07:48:28.689Z,1.78
2022-11-24T07:49:28.535Z,1.82
2022-11-24T07:50:28.554Z,1.74
2022-11-24T07:51:28.580Z,1.69
2022-11-24T07:52:28.545Z,1.96
2022-11-24T07:53:28.605Z,2.49
2022-11-24T07:54:28.602Z,1.32
2022-11-24T07:55:28.519Z,1.90
2022-11-24T07:56:28.597Z,2.20
2022-11-24T07:57:28.537Z,1.38
2022-11-24T07:58:32.388Z,2.01
2022-11-24T07:59:28.570Z,1.82
2022-11-24T08:00:28.571Z,1.95
2022-11-24T08:01:28.612Z,1.92
2022-11-24T08:02:28.567Z,2.28
2022-11-24T08:03:28.737Z,2.09
2022-11-24T08:05:28.597Z,2.16
2022-11-24T08:06:32.556Z,2.34
2022-11-24T08:07:28.616Z,2.09
2022-11-24T08:08:28.593Z,1.79
2022-11-24T08:09:28.576Z,2.21
2022-11-24T08:10:28.566Z,1.96
2022-11-24T08:11:28.612Z,1.54
2022-11-24T08:12:28.609Z,2.05
2022-11-24T08:13:28.562Z,2.03
2022-11-24T08:14:28.597Z,2.16
2022-11-24T08:15:28.571Z,1.89
2022-11-24T08:16:28.691Z,2.31
2022-11-24T08:17:28.615Z,2.59
2022-11-24T08:18:28.616Z,2.36
2022-11-24T08:20:28.632Z,2.39
2022-11-24T08:22:28.646Z,1.96
2022-11-24T08:23:28.577Z,2.06
2022-11-24T08:24:28.577Z,1.91
2022-11-24T08:25:28.670Z,2.42
2022-11-24T08:26:28.613Z,2.00
2022-11-24T08:27:28.664Z,2.69
2022-11-24T08:28:28.633Z,2.39
2022-11-24T08:29:28.631Z,2.58
2022-11-24T08:30:28.634Z,3.15
2022-11-24T08:31:28.642Z,2.87
2022-11-24T08:32:28.636Z,2.29
2022-11-24T08:33:28.648Z,2.14
2022-11-24T08:34:28.654Z,2.17
2022-11-24T08:35:28.647Z,2.46
2022-11-24T08:36:28.614Z,2.09
2022-11-24T08:37:28.691Z,2.27
2022-11-24T08:38:28.670Z,2.15
2022-11-24T08:39:28.639Z,2.62
2022-11-24T08:40:28.704Z,2.69
2022-11-24T08:41:28.651Z,2.64
2022-11-24T08:42:28.707Z,2.07
2022-11-24T08:43:28.630Z,2.34
2022-11-24T08:44:28.706Z,2.41
2022-11-24T08:45:30.635Z,2.48
2022-11-24T08:46:28.787Z,2.07
2022-11-24T08:47:28.693Z,1.92
2022-11-24T08:48:28.661Z,1.81
2022-11-24T08:49:28.646Z,2.08
2022-11-24T08:50:28.711Z,2.32
2022-11-24T08:53:28.677Z,2.35
2022-11-24T08:54:28.702Z,2.08
2022-11-24T08:56:28.747Z,2.64
2022-11-24T08:57:28.790Z,2.58
2022-11-24T08:58:28.713Z,2.84
2022-11-24T08:59:28.823Z,2.50
2022-11-24T09:00:28.700Z,2.36
2022-11-24T09:02:28.827Z,2.48
2022-11-24T09:03:28.728Z,2.03
2022-11-24T09:04:28.711Z,2.62
2022-11-24T09:05:51.125Z,2.78
2022-11-24T09:06:28.703Z,2.12
2022-11-24T09:07:28.795Z,2.34
2022-11-24T09:08:28.764Z,2.20
2022-11-24T09:09:28.727Z,2.03
2022-11-24T09:10:28.775Z,2.67
2022-11-24T09:11:28.706Z,2.47
2022-11-24T09:13:28.769Z,2.34
2022-11-24T09:14:28.745Z,2.41
2022-11-24T09:15:28.787Z,2.78
2022-11-24T09:16:28.822Z,2.50
2022-11-24T09:17:28.735Z,2.37
2022-11-24T09:18:30.379Z,2.37
2022-11-24T09:19:28.737Z,2.34
2022-11-24T09:20:28.772Z,2.45
2022-11-24T09:21:28.769Z,2.46
2022-11-24T09:22:28.768Z,1.94
2022-11-24T09:23:28.782Z,2.78
2022-11-24T09:24:28.786Z,2.19
2022-11-24T09:25:28.784Z,2.19
2022-11-24T09:26:28.726Z,2.31
2022-11-24T09:27:28.770Z,2.24
2022-11-24T09:28:28.786Z,2.10
2022-11-24T09:29:28.790Z,2.01
2022-11-24T09:30:28.977Z,2.12
2022-11-24T09:31:28.929Z,1.79
2022-11-24T09:32:28.777Z,2.53
2022-11-24T09:33:28.789Z,2.31
2022-11-24T09:34:28.744Z,1.99
2022-11-24T09:35:28.761Z,1.78
2022-11-24T09:36:28.757Z,1.97
2022-11-24T09:37:32.518Z,2.37
2022-11-24T09:38:28.838Z,2.32
2022-11-24T09:39:28.758Z,2.56
2022-11-24T09:40:28.822Z,2.26
2022-11-24T09:41:28.794Z,1.83
2022-11-24T09:42:28.763Z,1.78
2022-11-24T09:43:28.815Z,1.97
2022-11-24T09:44:28.812Z,1.85
2022-11-24T09:45:56.986Z,1.78
2022-11-24T09:46:28.894Z,2.44
2022-11-24T09:47:28.806Z,1.61
2022-11-24T09:48:28.846Z,1.64
2022-11-24T09:49:28.799Z,1.66
2022-11-24T09:50:28.786Z,1.94
2022-11-24T09:51:28.813Z,1.90
2022-11-24T09:52:28.799Z,1.71
2022-11-24T09:53:28.896Z,1.84
2022-11-24T09:54:28.803Z,1.93
2022-11-24T09:55:28.810Z,2.08
2022-11-24T09:56:28.894Z,1.50
2022-11-24T09:57:34.156Z,1.86
2022-11-24T09:58:28.847Z,1.76
2022-11-24T09:59:28.872Z,1.65
2022-11-24T10:00:28.845Z,1.89
2022-11-24T10:01:28.952Z,1.47
2022-11-24T10:02:28.858Z,1.50
2022-11-24T10:03:28.910Z,1.70
2022-11-24T10:04:28.834Z,1.61
2022-11-24T10:05:28.818Z,1.93
2022-11-24T10:06:28.898Z,2.02
2022-11-24T10:07:28.963Z,2.12
2022-11-24T10:08:28.918Z,1.82
2022-11-24T10:09:28.851Z,1.82
2022-11-24T10:10:28.908Z,1.71
2022-11-24T10:11:28.885Z,1.86
2022-11-24T10:12:28.894Z,1.78
2022-11-24T10:13:28.860Z,2.47
2022-11-24T10:14:28.841Z,2.06
2022-11-24T10:15:28.986Z,2.04
2022-11-24T10:16:28.962Z,2.36
2022-11-24T10:17:28.890Z,2.25
2022-11-24T10:18:28.907Z,2.47
2022-11-24T10:19:36.268Z,2.46
2022-11-24T10:20:28.875Z,2.11
2022-11-24T10:21:28.903Z,2.28
2022-11-24T10:22:28.881Z,2.48
2022-11-24T10:23:28.876Z,2.09
2022-11-24T10:24:28.937Z,2.25
2022-11-24T10:25:28.892Z,2.20
2022-11-24T10:26:28.931Z,2.16
2022-11-24T10:27:28.941Z,2.13
2022-11-24T10:28:28.906Z,2.24
2022-11-24T10:29:28.937Z,2.18
2022-11-24T10:30:28.896Z,2.51
2022-11-24T10:31:29.003Z,2.07
2022-11-24T10:32:28.903Z,2.28
2022-11-24T10:33:30.963Z,2.37
2022-11-24T10:34:28.947Z,1.63
2022-11-24T10:35:28.923Z,1.93
2022-11-24T10:36:28.910Z,1.98
2022-11-24T10:37:28.915Z,1.76
2022-11-24T10:38:28.964Z,2.09
2022-11-24T10:39:29.017Z,1.95
2022-11-24T10:40:55.796Z,1.90
2022-11-24T10:41:28.919Z,1.75
2022-11-24T10:42:28.947Z,1.88
2022-11-24T10:43:28.988Z,1.47
2022-11-24T10:45:28.991Z,2.22
2022-11-24T10:46:29.547Z,2.17
2022-11-24T10:47:29.019Z,2.28
2022-11-24T10:48:28.956Z,1.67
2022-11-24T10:49:28.948Z,2.01
2022-11-24T10:50:28.992Z,2.48
2022-11-24T10:51:28.947Z,2.08
2022-11-24T10:52:29.026Z,2.39
2022-11-24T10:53:28.962Z,2.37
2022-11-24T10:54:28.979Z,2.80
2022-11-24T10:55:29.034Z,2.31
2022-11-24T10:56:29.012Z,1.73
2022-11-24T10:57:29.042Z,1.90
2022-11-24T10:58:32.953Z,2.27
2022-11-24T10:59:28.969Z,1.93
2022-11-24T11:00:29.018Z,2.35
2022-11-24T11:01:29.024Z,2.06
2022-11-24T11:02:29.229Z,2.35
2022-11-24T11:03:28.979Z,2.31
2022-11-24T11:04:29.032Z,1.94
2022-11-24T11:05:29.014Z,1.97
2022-11-24T11:06:29.036Z,2.97
2022-11-24T11:07:29.059Z,2.87
2022-11-24T11:08:29.030Z,2.36
2022-11-24T11:09:28.992Z,2.18
2022-11-24T11:10:29.074Z,2.42
2022-11-24T11:11:29.025Z,3.11
2022-11-24T11:12:43.505Z,2.33
2022-11-24T11:13:29.011Z,2.20
2022-11-24T11:14:29.017Z,2.42
2022-11-24T11:15:29.200Z,2.30
2022-11-24T11:17:29.048Z,2.35
2022-11-24T11:18:29.067Z,2.11
2022-11-24T11:19:47.942Z,2.64
2022-11-24T11:21:29.065Z,3.04
2022-11-24T11:22:29.043Z,2.55
2022-11-24T11:23:29.133Z,2.76
2022-11-24T11:25:29.089Z,2.50
2022-11-24T11:26:29.071Z,3.49
2022-11-24T11:27:29.059Z,3.48
2022-11-24T11:28:29.100Z,2.78
2022-11-24T11:31:29.162Z,2.78
2022-11-24T11:34:30.445Z,2.31
2022-11-24T11:35:29.061Z,2.74
2022-11-24T11:36:29.156Z,2.55
2022-11-24T11:37:29.058Z,2.28
2022-11-24T11:38:29.137Z,2.57
2022-11-24T11:40:29.063Z,2.14
2022-11-24T11:41:29.237Z,2.62
2022-11-24T11:42:53.816Z,2.17
2022-11-24T11:43:29.091Z,2.43
2022-11-24T11:44:29.112Z,3.09
2022-11-24T11:45:29.179Z,2.94
2022-11-24T11:46:29.297Z,2.63
2022-11-24T11:47:29.152Z,2.81
2022-11-24T11:48:31.427Z,6.42
2022-11-24T11:49:29.135Z,5.63
2022-11-24T11:50:29.154Z,3.89
2022-11-24T11:51:29.304Z,4.18
2022-11-24T11:52:29.155Z,4.05
2022-11-24T11:53:29.096Z,2.92
2022-11-24T11:54:29.187Z,2.65
2022-11-24T11:55:29.109Z,3.28
2022-11-24T11:56:29.130Z,2.23
2022-11-24T11:57:29.119Z,2.27
2022-11-24T11:58:29.163Z,2.09
2022-11-24T11:59:29.147Z,2.33
2022-11-24T12:00:29.125Z,2.40
2022-11-24T12:01:29.152Z,2.63
2022-11-24T12:02:29.307Z,2.66
2022-11-24T12:03:29.264Z,2.82
2022-11-24T12:04:29.168Z,5.28
2022-11-24T12:05:29.131Z,6.06
2022-11-24T12:06:29.188Z,2.88
2022-11-24T12:07:29.314Z,3.69
2022-11-24T12:08:29.145Z,3.60
2022-11-24T12:09:29.176Z,3.06
2022-11-24T12:10:29.144Z,2.66
2022-11-24T12:11:29.243Z,4.44
2022-11-24T12:12:29.213Z,3.04
2022-11-24T12:13:29.177Z,3.30
2022-11-24T12:14:29.212Z,2.33
2022-11-24T12:15:29.157Z,2.78
2022-11-24T12:16:29.277Z,1.95
2022-11-24T12:17:29.164Z,2.46
2022-11-24T12:18:55.248Z,2.01
2022-11-24T12:19:29.240Z,2.14
2022-11-24T12:20:29.194Z,2.18
2022-11-24T12:21:29.362Z,1.77
2022-11-24T12:22:29.201Z,2.38
2022-11-24T12:23:29.188Z,2.10
2022-11-24T12:24:29.291Z,2.22
2022-11-24T12:26:29.250Z,2.67
2022-11-24T12:27:29.203Z,1.68
2022-11-24T12:28:29.243Z,2.14
2022-11-24T12:29:29.279Z,2.42
2022-11-24T12:30:29.205Z,2.77
2022-11-24T12:31:29.328Z,2.24
2022-11-24T12:32:29.210Z,2.00
2022-11-24T12:33:29.216Z,2.35
2022-11-24T12:34:29.274Z,2.35
2022-11-24T12:35:29.258Z,2.76
2022-11-24T12:36:29.240Z,2.27
2022-11-24T12:37:29.206Z,2.41
2022-11-24T12:38:29.269Z,2.36
2022-11-24T12:39:29.287Z,2.35
2022-11-24T12:40:29.260Z,2.57
2022-11-24T12:41:41.721Z,2.17
2022-11-24T12:42:29.219Z,2.20
2022-11-24T12:43:29.249Z,2.64
2022-11-24T12:45:29.274Z,2.60
2022-11-24T12:46:29.320Z,2.33
2022-11-24T12:47:29.275Z,2.21
2022-11-24T12:49:29.264Z,2.31
2022-11-24T12:51:29.279Z,1.80
2022-11-24T12:53:29.289Z,1.83
2022-11-24T12:54:29.317Z,1.52
2022-11-24T12:55:29.302Z,1.31
2022-11-24T12:56:29.256Z,1.92
2022-11-24T12:57:29.332Z,2.08
2022-11-24T12:58:29.287Z,2.27
2022-11-24T12:59:29.308Z,2.33
2022-11-24T13:01:29.429Z,2.52
2022-11-24T13:02:29.463Z,1.89
2022-11-24T13:03:29.307Z,3.23
2022-11-24T13:05:29.352Z,2.79
2022-11-24T13:06:29.353Z,2.61
2022-11-24T13:07:29.417Z,2.44
2022-11-24T13:08:29.284Z,2.09
2022-11-24T13:10:54.252Z,1.89
2022-11-24T13:11:29.292Z,1.39
2022-11-24T13:12:29.381Z,1.54
2022-11-24T13:13:29.341Z,1.73
2022-11-24T13:14:29.301Z,2.30
2022-11-24T13:15:45.761Z,2.12
2022-11-24T13:16:44.478Z,1.79
2022-11-24T13:17:35.125Z,1.95
2022-11-24T13:18:29.378Z,1.33
2022-11-24T13:19:29.364Z,1.55
2022-11-24T13:20:29.391Z,1.92
2022-11-24T13:21:29.341Z,1.99
2022-11-24T13:22:29.363Z,1.98
2022-11-24T13:23:29.336Z,1.66
2022-11-24T13:24:29.325Z,1.31
2022-11-24T13:25:29.372Z,1.48
2022-11-24T13:26:29.349Z,2.09
2022-11-24T13:27:29.325Z,1.60
2022-11-24T13:28:53.897Z,1.54
2022-11-24T13:29:29.364Z,1.92
2022-11-24T13:30:29.432Z,1.81
2022-11-24T13:31:29.455Z,1.80
2022-11-24T13:32:29.378Z,1.60
2022-11-24T13:33:29.364Z,1.77
2022-11-24T13:34:29.354Z,1.57
2022-11-24T13:35:29.399Z,1.76
2022-11-24T13:36:29.424Z,2.44
2022-11-24T13:37:34.896Z,3.21
2022-11-24T13:38:29.347Z,1.63
2022-11-24T13:39:29.351Z,1.30
2022-11-24T13:40:29.444Z,1.65
2022-11-24T13:41:29.420Z,1.45
2022-11-24T13:42:43.366Z,2.35
2022-11-24T13:43:29.409Z,2.16
2022-11-24T13:44:29.457Z,2.36
2022-11-24T13:45:29.437Z,2.49
2022-11-24T13:46:29.424Z,1.74
2022-11-24T13:47:29.484Z,1.73
2022-11-24T13:48:29.435Z,1.39
2022-11-24T13:49:29.391Z,1.88
2022-11-24T13:50:29.476Z,1.61
2022-11-24T13:51:29.394Z,1.68
2022-11-24T13:52:29.414Z,1.98
2022-11-24T13:53:29.427Z,1.64
2022-11-24T13:54:29.401Z,1.69
2022-11-24T13:55:29.470Z,1.93
2022-11-24T13:56:29.412Z,1.23
2022-11-24T13:57:29.458Z,1.58
2022-11-24T13:58:29.470Z,1.90
2022-11-24T13:59:29.448Z,1.45
2022-11-24T14:00:29.461Z,1.74
2022-11-24T14:01:29.610Z,2.27
2022-11-24T14:02:29.528Z,1.56
2022-11-24T14:03:29.424Z,3.75
2022-11-24T14:05:29.513Z,5.10
2022-11-24T14:06:29.416Z,2.28
2022-11-24T14:07:29.514Z,1.69
2022-11-24T14:08:29.498Z,1.55
2022-11-24T14:09:29.494Z,1.81
2022-11-24T14:10:29.494Z,1.33
2022-11-24T14:11:29.515Z,1.57
2022-11-24T14:12:29.473Z,1.86
2022-11-24T14:13:29.534Z,1.49
2022-11-24T14:14:29.457Z,1.98
2022-11-24T14:15:29.484Z,2.03
2022-11-24T14:16:29.509Z,1.64
2022-11-24T14:17:29.453Z,1.94
2022-11-24T14:19:32.254Z,2.16
2022-11-24T14:20:29.519Z,1.78
2022-11-24T14:23:29.567Z,1.85
2022-11-24T14:24:29.498Z,1.47
2022-11-24T14:25:29.520Z,2.39
2022-11-24T14:26:29.520Z,2.35
2022-11-24T14:27:29.505Z,1.90
2022-11-24T14:28:29.586Z,1.85
2022-11-24T14:29:29.492Z,1.94
2022-11-24T14:30:29.490Z,2.06
2022-11-24T14:31:29.598Z,1.66
2022-11-24T14:32:29.559Z,1.85
2022-11-24T14:33:29.530Z,1.69
2022-11-24T14:35:29.682Z,1.74
2022-11-24T14:36:29.561Z,1.91
2022-11-24T14:37:29.537Z,3.97
2022-11-24T14:38:29.582Z,4.01
2022-11-24T14:39:29.528Z,3.06
2022-11-24T14:40:29.580Z,4.04
2022-11-24T14:41:29.523Z,2.01
2022-11-24T14:42:29.575Z,1.41
2022-11-24T14:44:29.562Z,1.71
2022-11-24T14:45:29.554Z,1.80
2022-11-24T14:46:29.642Z,1.33
2022-11-24T14:47:31.589Z,1.88
2022-11-24T14:48:29.573Z,1.89
2022-11-24T14:49:29.555Z,1.90
2022-11-24T14:50:29.694Z,1.53
2022-11-24T14:51:29.631Z,1.88
2022-11-24T14:52:29.595Z,2.21
2022-11-24T14:53:29.635Z,1.96
2022-11-24T14:54:29.608Z,2.00
2022-11-24T14:55:29.581Z,2.03
2022-11-24T14:56:29.600Z,2.01
2022-11-24T14:57:29.600Z,2.30
2022-11-24T14:58:29.571Z,2.01
2022-11-24T14:59:29.601Z,2.08
2022-11-24T15:00:29.672Z,2.42
2022-11-24T15:01:29.767Z,1.86
2022-11-24T15:02:29.672Z,1.88
2022-11-24T15:03:29.613Z,1.88
2022-11-24T15:05:00.932Z,2.28
2022-11-24T15:05:29.589Z,2.22